createdAt,value
2023-05-09T00:00:50.045Z,22.9052
2023-05-09T00:01:51.157Z,22.9455
2023-05-09T00:02:52.265Z,22.9644
2023-05-09T00:03:53.400Z,22.9722
2023-05-09T00:04:54.459Z,22.9740
2023-05-09T00:05:55.610Z,23.0162
2023-05-09T00:06:56.620Z,23.0100
2023-05-09T00:07:57.712Z,22.9882
2023-05-09T00:08:58.816Z,23.0081
2023-05-09T00:09:59.897Z,22.9938
2023-05-09T00:11:00.999Z,22.9432
2023-05-09T00:12:02.096Z,22.9570
2023-05-09T00:13:03.208Z,22.9808
2023-05-09T00:14:04.276Z,23.0433
2023-05-09T00:15:05.422Z,23.0796
2023-05-09T00:16:06.474Z,23.1201
2023-05-09T00:17:07.537Z,23.1071
2023-05-09T00:18:08.626Z,23.1221
2023-05-09T00:19:09.736Z,23.1341
2023-05-09T00:20:10.842Z,23.1410
2023-05-09T00:21:11.998Z,23.1421
2023-05-09T00:22:12.998Z,23.1322
2023-05-09T00:23:14.101Z,23.0821
2023-05-09T00:24:15.196Z,23.0712
2023-05-09T00:25:16.508Z,23.1115
2023-05-09T00:26:17.389Z,23.0948
2023-05-09T00:27:18.494Z,23.0919
2023-05-09T00:28:19.573Z,23.1507
2023-05-09T00:29:20.671Z,23.1753
2023-05-09T00:30:21.750Z,23.1723
2023-05-09T00:31:22.862Z,23.1057
2023-05-09T00:32:23.951Z,23.0936
2023-05-09T00:33:25.065Z,23.0819
2023-05-09T00:34:26.146Z,23.0507
2023-05-09T00:35:27.243Z,23.0463
2023-05-09T00:36:28.420Z,23.0287
2023-05-09T00:37:29.434Z,23.0162
2023-05-09T00:38:30.544Z,22.9753
2023-05-09T00:39:31.622Z,22.8997
2023-05-09T00:40:32.732Z,22.8913
2023-05-09T00:41:33.807Z,22.8485
2023-05-09T00:42:34.901Z,22.8880
2023-05-09T00:43:35.982Z,22.9040
2023-05-09T00:44:37.086Z,22.8954
2023-05-09T00:45:38.198Z,22.8740
2023-05-09T00:46:39.273Z,22.8923
2023-05-09T00:47:40.383Z,22.9473
2023-05-09T00:48:41.458Z,22.9375
2023-05-09T00:49:42.563Z,22.9718
2023-05-09T00:50:43.671Z,22.9652
2023-05-09T00:51:44.827Z,22.9664
2023-05-09T00:52:45.819Z,22.9432
2023-05-09T00:53:46.908Z,22.9742
2023-05-09T00:54:48.038Z,22.9936
2023-05-09T00:55:49.109Z,22.9465
2023-05-09T00:56:50.212Z,22.9708
2023-05-09T00:57:51.309Z,22.9701
2023-05-09T00:58:52.398Z,22.9792
2023-05-09T00:59:53.506Z,22.9664
2023-05-09T01:00:54.603Z,22.9837
2023-05-09T01:01:55.689Z,22.9882
2023-05-09T01:02:56.935Z,22.9821
2023-05-09T01:03:57.886Z,22.9927
2023-05-09T01:04:58.992Z,22.9845
2023-05-09T01:06:00.105Z,22.9970
2023-05-09T01:07:01.281Z,23.0069
2023-05-09T01:08:02.280Z,22.9977
2023-05-09T01:09:03.373Z,22.9297
2023-05-09T01:10:04.453Z,22.9418
2023-05-09T01:11:05.617Z,22.9634
2023-05-09T01:12:06.654Z,22.9365
2023-05-09T01:13:07.759Z,22.9827
2023-05-09T01:14:08.856Z,23.0205
2023-05-09T01:15:09.948Z,23.0246
2023-05-09T01:16:11.078Z,23.0162
2023-05-09T01:17:12.108Z,22.9779
2023-05-09T01:18:13.245Z,22.9773
2023-05-09T01:19:14.309Z,22.8999
2023-05-09T01:20:15.405Z,22.8785
2023-05-09T01:21:16.509Z,22.8869
2023-05-09T01:22:17.709Z,22.9017
2023-05-09T01:23:18.693Z,22.9268
2023-05-09T01:24:19.772Z,22.9549
2023-05-09T01:25:20.886Z,22.9570
2023-05-09T01:26:21.964Z,22.9284
2023-05-09T01:27:23.055Z,22.9453
2023-05-09T01:28:24.148Z,22.9825
2023-05-09T01:29:25.254Z,23.0311
2023-05-09T01:30:26.350Z,23.0184
2023-05-09T01:31:27.450Z,22.9683
2023-05-09T01:32:28.614Z,22.9473
2023-05-09T01:33:29.636Z,22.9492
2023-05-09T01:34:30.739Z,22.8839
2023-05-09T01:35:31.834Z,22.8619
2023-05-09T01:36:33.017Z,22.8105
2023-05-09T01:37:34.089Z,22.8251
2023-05-09T01:38:35.109Z,22.8672
2023-05-09T01:39:36.190Z,22.8543
2023-05-09T01:40:37.286Z,22.7964
2023-05-09T01:41:38.416Z,22.8208
2023-05-09T01:42:39.473Z,22.8453
2023-05-09T01:43:40.653Z,22.8761
2023-05-09T01:44:41.663Z,22.8676
2023-05-09T01:45:42.773Z,22.8964
2023-05-09T01:46:43.888Z,22.9471
2023-05-09T01:47:44.991Z,22.9825
2023-05-09T01:48:46.031Z,23.0100
2023-05-09T01:49:47.120Z,23.0287
2023-05-09T01:50:48.208Z,23.0100
2023-05-09T01:51:49.318Z,23.0285
2023-05-09T01:52:50.495Z,23.0301
2023-05-09T01:53:51.493Z,23.0324
2023-05-09T01:54:52.592Z,23.0353
2023-05-09T01:55:53.665Z,23.0433
2023-05-09T01:56:54.796Z,23.0172
2023-05-09T01:57:55.858Z,23.0141
2023-05-09T01:58:56.960Z,23.0159
2023-05-09T01:59:58.041Z,23.0162
2023-05-09T02:00:59.180Z,23.0367
2023-05-09T02:02:00.361Z,23.0593
2023-05-09T02:03:01.427Z,23.0648
2023-05-09T02:04:02.427Z,23.0702
2023-05-09T02:05:03.568Z,23.0963
2023-05-09T02:06:04.611Z,23.0932
2023-05-09T02:07:05.742Z,23.0784
2023-05-09T02:08:06.907Z,23.0311
2023-05-09T02:09:07.884Z,22.9915
2023-05-09T02:10:08.977Z,22.9215
2023-05-09T02:11:17.612Z,22.9344
2023-05-09T02:12:11.179Z,22.9712
2023-05-09T02:13:12.278Z,22.9890
2023-05-09T02:14:13.355Z,23.0225
2023-05-09T02:15:14.648Z,23.0468
2023-05-09T02:16:15.593Z,23.1026
2023-05-09T02:17:16.624Z,23.1378
2023-05-09T02:18:17.719Z,23.1626
2023-05-09T02:19:18.806Z,23.1277
2023-05-09T02:20:19.891Z,23.0993
2023-05-09T02:21:20.985Z,23.1092
2023-05-09T02:22:22.105Z,23.0724
2023-05-09T02:23:23.267Z,23.0837
2023-05-09T02:24:24.340Z,23.0848
2023-05-09T02:25:25.417Z,23.1059
2023-05-09T02:26:26.515Z,23.1147
2023-05-09T02:27:27.625Z,23.0570
2023-05-09T02:28:28.686Z,23.0106
2023-05-09T02:29:29.788Z,23.0420
2023-05-09T02:30:30.874Z,23.0131
2023-05-09T02:31:32.009Z,23.0153
2023-05-09T02:32:33.097Z,22.9806
2023-05-09T02:33:34.131Z,22.9823
2023-05-09T02:34:35.223Z,23.0225
2023-05-09T02:35:36.307Z,23.0192
2023-05-09T02:36:37.437Z,23.0291
2023-05-09T02:37:38.499Z,22.9960
2023-05-09T02:38:39.641Z,22.9860
2023-05-09T02:39:40.650Z,23.0034
2023-05-09T02:40:41.744Z,23.0118
2023-05-09T02:41:42.814Z,22.9646
2023-05-09T02:42:43.911Z,22.9512
2023-05-09T02:43:44.991Z,22.9463
2023-05-09T02:44:46.089Z,22.8742
2023-05-09T02:45:47.249Z,22.8952
2023-05-09T02:46:48.265Z,22.9192
2023-05-09T02:47:49.416Z,22.9030
2023-05-09T02:48:50.460Z,22.8837
2023-05-09T02:49:51.556Z,22.9017
2023-05-09T02:50:52.689Z,22.9703
2023-05-09T02:51:53.741Z,23.0001
2023-05-09T02:52:54.819Z,23.0057
2023-05-09T02:53:55.984Z,23.0014
2023-05-09T02:54:57.018Z,23.0096
2023-05-09T02:55:58.112Z,23.0344
2023-05-09T02:56:59.213Z,23.0638
2023-05-09T02:58:12.562Z,23.0638
2023-05-09T02:59:02.370Z,23.0691
2023-05-09T03:00:02.489Z,23.0755
2023-05-09T03:01:03.609Z,23.0529
2023-05-09T03:02:04.664Z,23.0400
2023-05-09T03:03:05.877Z,23.0412
2023-05-09T03:04:06.840Z,23.0562
2023-05-09T03:05:07.947Z,23.0476
2023-05-09T03:06:09.022Z,23.0574
2023-05-09T03:07:10.117Z,23.0880
2023-05-09T03:08:11.256Z,23.1117
2023-05-09T03:09:12.383Z,23.1215
2023-05-09T03:10:13.430Z,23.1312
2023-05-09T03:11:14.481Z,23.1262
2023-05-09T03:12:15.598Z,23.1049
2023-05-09T03:13:16.712Z,23.0991
2023-05-09T03:14:17.784Z,23.0848
2023-05-09T03:15:18.874Z,22.9882
2023-05-09T03:16:20.047Z,22.9580
2023-05-09T03:17:21.129Z,22.9814
2023-05-09T03:18:22.157Z,23.0162
2023-05-09T03:19:23.253Z,23.0367
2023-05-09T03:20:24.345Z,23.0207
2023-05-09T03:21:25.425Z,23.0014
2023-05-09T03:22:26.536Z,22.9989
2023-05-09T03:23:27.607Z,22.9946
2023-05-09T03:24:28.802Z,23.0309
2023-05-09T03:25:29.806Z,23.0453
2023-05-09T03:26:30.887Z,23.0850
2023-05-09T03:27:31.986Z,23.1125
2023-05-09T03:28:33.094Z,23.1059
2023-05-09T03:29:34.161Z,23.1178
2023-05-09T03:30:35.270Z,23.1400
2023-05-09T03:31:36.419Z,23.1203
2023-05-09T03:32:37.491Z,23.1211
2023-05-09T03:33:38.565Z,23.1100
2023-05-09T03:34:39.622Z,23.1232
2023-05-09T03:35:40.755Z,23.1454
2023-05-09T03:36:41.806Z,23.1595
2023-05-09T03:37:42.902Z,23.1505
2023-05-09T03:38:44.047Z,23.1505
2023-05-09T03:39:45.180Z,23.1827
2023-05-09T03:40:46.195Z,23.1936
2023-05-09T03:41:47.266Z,23.1677
2023-05-09T03:42:48.398Z,23.1784
2023-05-09T03:43:49.502Z,23.1603
2023-05-09T03:44:50.550Z,23.1074
2023-05-09T03:45:51.643Z,23.1104
2023-05-09T03:46:52.850Z,23.0778
2023-05-09T03:47:53.868Z,23.0445
2023-05-09T03:48:54.968Z,23.0605
2023-05-09T03:49:56.039Z,23.0817
2023-05-09T03:50:57.130Z,23.0593
2023-05-09T03:51:58.210Z,23.0735
2023-05-09T03:52:59.315Z,23.0895
2023-05-09T03:54:00.408Z,23.0878
2023-05-09T03:55:01.595Z,23.0872
2023-05-09T03:56:02.591Z,23.0498
2023-05-09T03:57:03.668Z,23.0784
2023-05-09T03:58:04.783Z,23.1006
2023-05-09T03:59:05.887Z,23.1080
2023-05-09T04:00:06.995Z,23.1014
2023-05-09T04:01:08.060Z,23.0831
2023-05-09T04:02:09.190Z,23.0659
2023-05-09T04:03:10.464Z,23.0786
2023-05-09T04:04:11.411Z,23.0753
2023-05-09T04:05:12.673Z,23.0930
2023-05-09T04:06:13.513Z,23.1180
2023-05-09T04:07:14.614Z,23.1532
2023-05-09T04:08:15.722Z,23.1094
2023-05-09T04:09:16.817Z,23.0496
2023-05-09T04:10:18.015Z,23.0367
2023-05-09T04:11:18.985Z,23.0667
2023-05-09T04:12:20.086Z,23.0940
2023-05-09T04:13:21.242Z,23.1117
2023-05-09T04:14:22.297Z,23.1168
2023-05-09T04:15:23.384Z,23.1295
2023-05-09T04:16:24.501Z,23.0948
2023-05-09T04:17:25.632Z,23.0213
2023-05-09T04:18:26.661Z,23.0646
2023-05-09T04:19:27.793Z,23.0950
2023-05-09T04:20:28.839Z,23.1277
2023-05-09T04:21:29.920Z,23.1464
2023-05-09T04:22:31.048Z,23.1386
2023-05-09T04:23:32.121Z,23.1443
2023-05-09T04:24:33.219Z,23.1236
2023-05-09T04:25:34.402Z,23.1343
2023-05-09T04:26:35.386Z,23.1353
2023-05-09T04:27:36.481Z,23.1532
2023-05-09T04:28:37.568Z,23.1581
2023-05-09T04:29:38.708Z,23.1511
2023-05-09T04:30:39.779Z,23.1741
2023-05-09T04:31:40.909Z,23.1406
2023-05-09T04:32:41.990Z,23.1328
2023-05-09T04:33:43.063Z,23.1133
2023-05-09T04:34:44.169Z,23.0928
2023-05-09T04:35:45.217Z,23.0659
2023-05-09T04:36:46.308Z,23.0786
2023-05-09T04:37:47.411Z,23.0661
2023-05-09T04:38:48.512Z,23.0903
2023-05-09T04:39:49.622Z,23.0926
2023-05-09T04:40:50.781Z,23.1445
2023-05-09T04:41:51.785Z,23.1244
2023-05-09T04:42:52.869Z,23.1049
2023-05-09T04:43:53.957Z,23.1306
2023-05-09T04:44:55.073Z,23.1299
2023-05-09T04:45:56.187Z,23.1458
2023-05-09T04:46:57.239Z,23.1608
2023-05-09T04:47:58.475Z,23.1322
2023-05-09T04:48:59.459Z,23.1353
2023-05-09T04:50:00.537Z,23.1454
2023-05-09T04:51:01.619Z,23.1388
2023-05-09T04:52:02.754Z,23.1464
2023-05-09T04:53:03.808Z,23.1472
2023-05-09T04:54:04.911Z,23.1168
2023-05-09T04:55:06.010Z,23.1158
2023-05-09T04:56:07.197Z,23.1127
2023-05-09T04:57:17.455Z,23.1047
2023-05-09T04:58:10.267Z,23.1102
2023-05-09T04:59:10.400Z,23.0913
2023-05-09T05:00:11.516Z,23.0946
2023-05-09T05:01:12.617Z,23.1234
2023-05-09T05:02:13.667Z,23.1267
2023-05-09T05:03:14.750Z,23.1067
2023-05-09T05:04:15.895Z,23.0995
2023-05-09T05:05:17.109Z,23.1037
2023-05-09T05:06:18.075Z,23.0993
2023-05-09T05:07:19.141Z,23.1104
2023-05-09T05:08:20.262Z,23.1016
2023-05-09T05:09:21.345Z,23.1004
2023-05-09T05:10:22.471Z,23.1267
2023-05-09T05:11:23.611Z,23.1530
2023-05-09T05:12:24.624Z,23.1464
2023-05-09T05:13:25.814Z,23.1353
2023-05-09T05:14:26.813Z,23.1441
2023-05-09T05:15:27.917Z,23.1443
2023-05-09T05:16:29.092Z,23.1441
2023-05-09T05:17:30.116Z,23.1156
2023-05-09T05:18:31.188Z,23.1047
2023-05-09T05:19:32.298Z,23.1341
2023-05-09T05:20:33.423Z,23.1573
2023-05-09T05:21:34.473Z,23.1679
2023-05-09T05:22:35.587Z,23.1774
2023-05-09T05:23:36.667Z,23.1827
2023-05-09T05:24:37.786Z,23.1829
2023-05-09T05:25:38.883Z,23.1827
2023-05-09T05:26:40.052Z,23.1959
2023-05-09T05:27:41.105Z,23.2084
2023-05-09T05:28:42.149Z,23.1836
2023-05-09T05:29:43.256Z,23.1682
2023-05-09T05:30:44.363Z,23.1519
2023-05-09T05:31:45.443Z,23.1679
2023-05-09T05:32:46.547Z,23.1558
2023-05-09T05:33:47.621Z,23.1593
2023-05-09T05:34:48.729Z,23.1638
2023-05-09T05:35:49.829Z,23.1992
2023-05-09T05:36:50.899Z,23.2281
2023-05-09T05:37:52.001Z,23.2419
2023-05-09T05:38:53.107Z,23.2261
2023-05-09T05:39:54.213Z,23.2337
2023-05-09T05:40:55.322Z,23.2555
2023-05-09T05:41:56.496Z,23.2575
2023-05-09T05:42:57.503Z,23.2222
2023-05-09T05:43:58.583Z,23.2133
2023-05-09T05:44:59.685Z,23.2271
2023-05-09T05:46:00.838Z,23.2099
2023-05-09T05:47:01.864Z,23.2027
2023-05-09T05:48:03.032Z,23.1819
2023-05-09T05:49:04.068Z,23.1753
2023-05-09T05:50:05.161Z,23.1571
2023-05-09T05:51:06.261Z,23.1564
2023-05-09T05:52:07.356Z,23.1772
2023-05-09T05:53:08.446Z,23.1881
2023-05-09T05:54:09.542Z,23.1733
2023-05-09T05:55:10.652Z,23.1883
2023-05-09T05:56:11.784Z,23.1731
2023-05-09T05:57:12.864Z,23.1542
2023-05-09T05:58:13.958Z,23.1634
2023-05-09T05:59:15.026Z,23.2037
2023-05-09T06:00:16.117Z,23.2567
2023-05-09T06:01:17.223Z,23.2661
2023-05-09T06:02:18.436Z,23.2684
2023-05-09T06:03:19.499Z,23.2972
2023-05-09T06:04:20.614Z,23.3115
2023-05-09T06:05:21.602Z,23.2637
2023-05-09T06:06:22.708Z,23.2499
2023-05-09T06:07:23.790Z,23.2324
2023-05-09T06:08:24.895Z,23.2462
2023-05-09T06:09:25.992Z,23.2456
2023-05-09T06:10:27.099Z,23.2168
2023-05-09T06:11:28.208Z,23.2466
2023-05-09T06:12:29.378Z,23.2349
2023-05-09T06:13:30.402Z,23.2240
2023-05-09T06:14:31.478Z,23.2409
2023-05-09T06:15:32.560Z,23.2409
2023-05-09T06:16:33.677Z,23.2148
2023-05-09T06:17:34.785Z,23.2057
2023-05-09T06:18:35.861Z,23.2158
2023-05-09T06:19:36.953Z,23.2226
2023-05-09T06:20:38.048Z,23.1949
2023-05-09T06:21:39.149Z,23.1805
2023-05-09T06:22:40.234Z,23.2294
2023-05-09T06:23:57.000Z,23.2189
2023-05-09T06:24:43.488Z,23.1784
2023-05-09T06:25:43.613Z,23.2131
2023-05-09T06:26:44.666Z,23.2421
2023-05-09T06:27:45.849Z,23.2376
2023-05-09T06:28:46.871Z,23.2261
2023-05-09T06:29:47.976Z,23.2209
2023-05-09T06:30:49.065Z,23.1885
2023-05-09T06:31:50.191Z,23.1905
2023-05-09T06:32:51.284Z,23.2413
2023-05-09T06:33:52.373Z,23.2587
2023-05-09T06:34:53.456Z,23.2187
2023-05-09T06:35:54.532Z,23.2055
2023-05-09T06:36:55.633Z,23.1938
2023-05-09T06:37:56.737Z,23.2177
2023-05-09T06:38:57.821Z,23.1838
2023-05-09T06:39:58.920Z,23.1870
2023-05-09T06:41:00.011Z,23.1649
2023-05-09T06:42:01.146Z,23.1741
2023-05-09T06:43:02.300Z,23.1934
2023-05-09T06:44:03.300Z,23.2066
2023-05-09T06:45:04.425Z,23.2271
2023-05-09T06:46:05.537Z,23.2292
2023-05-09T06:47:06.593Z,23.2045
2023-05-09T06:48:07.787Z,23.2220
2023-05-09T06:49:08.775Z,23.1934
2023-05-09T06:50:09.883Z,23.2135
2023-05-09T06:51:10.988Z,23.2304
2023-05-09T06:52:12.073Z,23.2345
2023-05-09T06:53:13.158Z,23.2292
2023-05-09T06:54:14.257Z,23.1969
2023-05-09T06:55:15.591Z,23.1994
2023-05-09T06:56:18.322Z,23.2209
2023-05-09T06:57:17.541Z,23.2507
2023-05-09T06:58:18.718Z,23.2421
2023-05-09T06:59:19.712Z,23.2674
2023-05-09T07:00:20.826Z,23.2672
2023-05-09T07:01:21.979Z,23.2885
2023-05-09T07:02:23.039Z,23.2686
2023-05-09T07:03:24.091Z,23.2643
2023-05-09T07:04:25.189Z,23.2770
2023-05-09T07:05:26.353Z,23.3039
2023-05-09T07:06:27.369Z,23.3746
2023-05-09T07:07:28.500Z,23.3867
2023-05-09T07:08:29.564Z,23.3760
2023-05-09T07:09:30.667Z,23.3594
2023-05-09T07:10:31.730Z,23.3625
2023-05-09T07:11:32.820Z,23.3234
2023-05-09T07:12:33.946Z,23.3460
2023-05-09T07:13:35.114Z,23.3674
2023-05-09T07:14:36.129Z,23.3520
2023-05-09T07:15:42.266Z,23.3551
2023-05-09T07:16:39.357Z,23.3559
2023-05-09T07:17:39.505Z,23.3610
2023-05-09T07:18:40.509Z,23.3395
2023-05-09T07:19:41.583Z,23.3382
2023-05-09T07:20:42.685Z,23.3545
2023-05-09T07:21:43.795Z,23.3009
2023-05-09T07:22:44.891Z,23.3378
2023-05-09T07:23:46.060Z,23.3976
2023-05-09T07:24:47.076Z,23.4239
2023-05-09T07:25:48.169Z,23.4377
2023-05-09T07:26:49.258Z,23.4446
2023-05-09T07:27:50.388Z,23.4430
2023-05-09T07:28:51.533Z,23.4625
2023-05-09T07:29:52.541Z,23.4738
2023-05-09T07:30:53.655Z,23.4999
2023-05-09T07:31:54.788Z,23.4656
2023-05-09T07:32:55.885Z,23.4280
2023-05-09T07:33:56.925Z,23.4075
2023-05-09T07:34:58.035Z,23.4385
2023-05-09T07:35:59.162Z,23.4978
2023-05-09T07:37:00.218Z,23.5042
2023-05-09T07:38:01.337Z,23.5110
2023-05-09T07:39:02.394Z,23.5032
2023-05-09T07:40:03.500Z,23.5274
2023-05-09T07:41:04.611Z,23.5523
2023-05-09T07:42:05.701Z,23.5590
2023-05-09T07:43:06.790Z,23.5925
2023-05-09T07:44:08.023Z,23.6063
2023-05-09T07:45:08.980Z,23.6092
2023-05-09T07:46:10.125Z,23.5841
2023-05-09T07:47:11.160Z,23.6338
2023-05-09T07:48:12.334Z,23.6517
2023-05-09T07:49:13.358Z,23.6517
2023-05-09T07:50:14.448Z,23.6293
2023-05-09T07:51:15.547Z,23.5946
2023-05-09T07:52:16.618Z,23.5543
2023-05-09T07:53:17.791Z,23.5204
2023-05-09T07:54:18.828Z,23.5346
2023-05-09T07:55:19.917Z,23.5831
2023-05-09T07:56:21.014Z,23.5568
2023-05-09T07:57:22.143Z,23.5332
2023-05-09T07:58:23.196Z,23.4637
2023-05-09T07:59:24.367Z,23.4656
2023-05-09T08:00:25.459Z,23.4736
2023-05-09T08:01:26.485Z,23.4323
2023-05-09T08:02:27.625Z,23.4292
2023-05-09T08:03:28.721Z,23.4582
2023-05-09T08:04:29.793Z,23.5126
2023-05-09T08:05:30.877Z,23.5775
2023-05-09T08:06:31.947Z,23.5613
2023-05-09T08:07:33.055Z,23.5161
2023-05-09T08:08:34.175Z,23.4937
2023-05-09T08:09:35.240Z,23.4676
2023-05-09T08:10:36.367Z,23.5054
2023-05-09T08:11:37.433Z,23.5260
2023-05-09T08:12:38.564Z,23.5071
2023-05-09T08:13:39.620Z,23.4927
2023-05-09T08:14:40.810Z,23.4422
2023-05-09T08:15:41.867Z,23.4559
2023-05-09T08:16:42.907Z,23.4787
2023-05-09T08:17:44.060Z,23.4385
2023-05-09T08:18:45.118Z,23.4598
2023-05-09T08:19:46.188Z,23.5174
2023-05-09T08:20:47.283Z,23.5208
2023-05-09T08:21:48.377Z,23.5582
2023-05-09T08:22:49.486Z,23.5946
2023-05-09T08:23:50.568Z,23.5796
2023-05-09T08:24:51.643Z,23.6042
2023-05-09T08:25:52.748Z,23.6040
2023-05-09T08:26:53.849Z,23.6051
2023-05-09T08:27:54.942Z,23.5966
2023-05-09T08:28:56.063Z,23.5535
2023-05-09T08:29:57.223Z,23.5009
2023-05-09T08:30:58.271Z,23.5032
2023-05-09T08:31:59.405Z,23.5350
2023-05-09T08:33:00.445Z,23.5252
2023-05-09T08:34:01.531Z,23.5184
2023-05-09T08:35:02.626Z,23.5379
2023-05-09T08:36:03.711Z,23.5480
2023-05-09T08:37:04.795Z,23.5765
2023-05-09T08:38:05.891Z,23.5547
2023-05-09T08:39:06.984Z,23.5500
2023-05-09T08:40:08.086Z,23.5176
2023-05-09T08:41:09.201Z,23.5447
2023-05-09T08:42:10.287Z,23.5252
2023-05-09T08:43:11.386Z,23.4970
2023-05-09T08:44:12.483Z,23.4833
2023-05-09T08:45:13.558Z,23.4617
2023-05-09T08:46:14.680Z,23.4416
2023-05-09T08:47:15.767Z,23.4576
2023-05-09T08:48:16.865Z,23.4489
2023-05-09T08:49:17.946Z,23.4711
2023-05-09T08:50:19.164Z,23.5208
2023-05-09T08:51:20.149Z,23.5459
2023-05-09T08:52:21.244Z,23.5745
2023-05-09T08:53:22.314Z,23.6040
2023-05-09T08:54:23.447Z,23.5551
2023-05-09T08:55:24.519Z,23.5500
2023-05-09T08:56:25.614Z,23.5621
2023-05-09T08:57:26.693Z,23.5525
2023-05-09T08:58:27.797Z,23.5765
2023-05-09T08:59:28.902Z,23.5482
2023-05-09T09:00:30.080Z,23.4894
2023-05-09T09:01:31.105Z,23.5139
2023-05-09T09:02:32.204Z,23.5558
2023-05-09T09:03:33.280Z,23.5399
2023-05-09T09:04:34.428Z,23.5194
2023-05-09T09:06:36.567Z,23.4806
2023-05-09T09:07:37.662Z,23.5149
2023-05-09T09:08:38.761Z,23.5381
2023-05-09T09:09:39.856Z,23.5457
2023-05-09T09:10:40.925Z,23.5644
2023-05-09T09:11:42.039Z,23.5067
2023-05-09T09:12:43.145Z,23.5260
2023-05-09T09:13:44.202Z,23.5806
2023-05-09T09:14:45.324Z,23.6334
2023-05-09T09:15:46.509Z,23.6170
2023-05-09T09:16:47.530Z,23.6235
2023-05-09T09:17:48.624Z,23.6433
2023-05-09T09:18:49.691Z,23.6350
2023-05-09T09:19:50.838Z,23.6367
2023-05-09T09:20:51.866Z,23.6722
2023-05-09T09:21:52.973Z,23.6874
2023-05-09T09:22:54.095Z,23.6685
2023-05-09T09:23:55.174Z,23.6636
2023-05-09T09:24:56.259Z,23.6476
2023-05-09T09:25:59.539Z,23.5979
2023-05-09T09:26:58.449Z,23.5839
2023-05-09T09:27:59.579Z,23.5630
2023-05-09T09:29:00.640Z,23.5564
2023-05-09T09:30:01.770Z,23.5958
2023-05-09T09:31:02.915Z,23.6012
2023-05-09T09:32:03.949Z,23.5630
2023-05-09T09:33:05.117Z,23.5798
2023-05-09T09:34:06.936Z,23.5619
2023-05-09T09:35:07.238Z,23.5176
2023-05-09T09:36:08.295Z,23.5356
2023-05-09T09:37:09.395Z,23.5841
2023-05-09T09:38:10.497Z,23.6049
2023-05-09T09:39:11.590Z,23.6065
2023-05-09T09:40:12.913Z,23.6496
2023-05-09T09:41:13.782Z,23.6314
2023-05-09T09:42:14.894Z,23.6182
2023-05-09T09:43:15.969Z,23.6369
2023-05-09T09:44:17.081Z,23.6293
2023-05-09T09:45:18.186Z,23.6061
2023-05-09T09:46:19.361Z,23.6394
2023-05-09T09:47:20.352Z,23.6589
2023-05-09T09:48:21.445Z,23.6020
2023-05-09T09:49:22.523Z,23.5545
2023-05-09T09:50:23.648Z,23.5268
2023-05-09T09:51:24.712Z,23.5227
2023-05-09T09:52:25.835Z,23.5699
2023-05-09T09:53:26.919Z,23.5722
2023-05-09T09:54:28.037Z,23.5490
2023-05-09T09:55:29.107Z,23.5052
2023-05-09T09:56:30.190Z,23.5231
2023-05-09T09:57:31.348Z,23.5402
2023-05-09T09:58:32.399Z,23.5087
2023-05-09T09:59:33.495Z,23.4915
2023-05-09T10:00:34.566Z,23.5196
2023-05-09T10:01:35.805Z,23.5180
2023-05-09T10:02:36.789Z,23.5383
2023-05-09T10:03:37.889Z,23.5545
2023-05-09T10:04:39.053Z,23.5171
2023-05-09T10:05:40.039Z,23.5666
2023-05-09T10:06:41.121Z,23.6235
2023-05-09T10:07:42.214Z,23.6687
2023-05-09T10:08:43.293Z,23.6603
2023-05-09T10:09:44.380Z,23.6336
2023-05-09T10:10:45.515Z,23.6170
2023-05-09T10:11:46.568Z,23.5948
2023-05-09T10:12:47.719Z,23.5841
2023-05-09T10:13:48.763Z,23.5763
2023-05-09T10:14:49.856Z,23.5654
2023-05-09T10:15:53.879Z,23.5966
2023-05-09T10:16:52.204Z,23.5862
2023-05-09T10:17:53.271Z,23.5829
2023-05-09T10:18:54.308Z,23.5979
2023-05-09T10:19:55.318Z,23.6030
2023-05-09T10:20:56.482Z,23.5831
2023-05-09T10:21:57.498Z,23.6250
2023-05-09T10:22:58.581Z,23.6455
2023-05-09T10:23:59.684Z,23.6519
2023-05-09T10:25:00.836Z,23.6435
2023-05-09T10:26:01.957Z,23.5894
2023-05-09T10:27:03.035Z,23.5402
2023-05-09T10:28:04.139Z,23.5126
2023-05-09T10:29:05.208Z,23.5052
2023-05-09T10:30:06.322Z,23.5063
2023-05-09T10:31:08.872Z,23.4237
2023-05-09T10:32:08.589Z,23.3582
2023-05-09T10:33:09.639Z,23.3812
2023-05-09T10:34:10.696Z,23.3867
2023-05-09T10:35:11.825Z,23.4309
2023-05-09T10:36:12.920Z,23.4956
2023-05-09T10:37:13.976Z,23.4399
2023-05-09T10:38:15.072Z,23.3621
2023-05-09T10:39:16.168Z,23.3617
2023-05-09T10:40:17.274Z,23.4005
2023-05-09T10:41:18.356Z,23.4235
2023-05-09T10:42:19.467Z,23.4502
2023-05-09T10:43:20.538Z,23.4687
2023-05-09T10:44:21.624Z,23.5108
2023-05-09T10:45:22.765Z,23.4925
2023-05-09T10:46:23.905Z,23.5480
2023-05-09T10:47:25.035Z,23.6088
2023-05-09T10:48:26.001Z,23.6568
2023-05-09T10:49:27.096Z,23.6691
2023-05-09T10:50:28.198Z,23.7119
2023-05-09T10:51:29.310Z,23.7472
2023-05-09T10:52:30.395Z,23.7733
2023-05-09T10:53:31.479Z,23.7624
2023-05-09T10:54:32.562Z,23.7371
2023-05-09T10:55:33.655Z,23.7665
2023-05-09T10:56:34.772Z,23.7182
2023-05-09T10:57:35.858Z,23.7090
2023-05-09T10:58:36.932Z,23.6560
2023-05-09T10:59:38.036Z,23.6527
2023-05-09T11:00:39.141Z,23.6650
2023-05-09T11:01:40.301Z,23.6589
2023-05-09T11:02:41.463Z,23.6864
2023-05-09T11:03:42.500Z,23.7125
2023-05-09T11:04:43.516Z,23.7788
2023-05-09T11:05:44.583Z,23.8238
2023-05-09T11:06:45.706Z,23.8801
2023-05-09T11:07:46.786Z,23.8567
2023-05-09T11:08:47.878Z,23.8501
2023-05-09T11:09:48.968Z,23.8524
2023-05-09T11:10:50.055Z,23.8596
2023-05-09T11:11:51.168Z,23.8575
2023-05-09T11:12:52.248Z,23.8499
2023-05-09T11:13:53.340Z,23.8205
2023-05-09T11:14:54.433Z,23.8140
2023-05-09T11:15:55.578Z,23.8170
2023-05-09T11:16:56.613Z,23.8271
2023-05-09T11:17:57.840Z,23.7973
2023-05-09T11:18:58.813Z,23.8142
2023-05-09T11:19:59.892Z,23.7764
2023-05-09T11:21:01.007Z,23.7164
2023-05-09T11:22:02.127Z,23.6539
2023-05-09T11:23:03.182Z,23.6217
2023-05-09T11:24:04.300Z,23.6646
2023-05-09T11:25:05.370Z,23.7263
2023-05-09T11:26:06.523Z,23.7901
2023-05-09T11:27:07.594Z,23.8281
2023-05-09T11:28:08.672Z,23.8401
2023-05-09T11:29:09.781Z,23.7873
2023-05-09T11:30:10.876Z,23.7104
2023-05-09T11:31:11.955Z,23.6502
2023-05-09T11:32:13.180Z,23.6260
2023-05-09T11:33:14.228Z,23.6291
2023-05-09T11:34:15.221Z,23.6496
2023-05-09T11:35:16.664Z,23.6601
2023-05-09T11:36:17.440Z,23.6995
2023-05-09T11:37:18.515Z,23.6952
2023-05-09T11:38:19.604Z,23.6977
2023-05-09T11:39:20.704Z,23.7108
2023-05-09T11:40:21.813Z,23.6841
2023-05-09T11:41:22.894Z,23.7067
2023-05-09T11:42:23.977Z,23.7799
2023-05-09T11:43:25.076Z,23.8218
2023-05-09T11:44:26.178Z,23.8370
2023-05-09T11:45:27.271Z,23.7971
2023-05-09T11:46:28.373Z,23.6993
2023-05-09T11:47:29.484Z,23.7090
2023-05-09T11:48:30.618Z,23.7614
2023-05-09T11:49:31.619Z,23.7688
2023-05-09T11:50:32.730Z,23.7567
2023-05-09T11:51:33.819Z,23.8195
2023-05-09T11:52:34.906Z,23.8770
2023-05-09T11:53:35.991Z,23.8840
2023-05-09T11:54:37.085Z,23.8456
2023-05-09T11:55:38.217Z,23.7895
2023-05-09T11:56:39.288Z,23.6730
2023-05-09T11:57:40.379Z,23.6593
2023-05-09T11:58:41.457Z,23.6578
2023-05-09T11:59:42.542Z,23.7129
2023-05-09T12:00:43.650Z,23.6850
2023-05-09T12:01:44.731Z,23.6496
2023-05-09T12:02:46.035Z,23.6162
2023-05-09T12:03:47.068Z,23.6509
2023-05-09T12:04:48.028Z,23.7084
2023-05-09T12:05:49.170Z,23.7339
2023-05-09T12:06:50.200Z,23.7521
2023-05-09T12:07:51.346Z,23.7717
2023-05-09T12:08:52.402Z,23.8477
2023-05-09T12:09:53.511Z,23.8926
2023-05-09T12:10:54.602Z,23.8982
2023-05-09T12:11:55.684Z,23.9216
2023-05-09T12:12:56.797Z,23.9510
2023-05-09T12:13:57.908Z,23.9563
2023-05-09T12:14:59.006Z,23.9448
2023-05-09T12:16:00.163Z,23.9245
2023-05-09T12:17:01.168Z,23.9317
2023-05-09T12:18:02.303Z,23.9290
2023-05-09T12:19:03.418Z,23.9202
2023-05-09T12:20:04.472Z,23.8920